sensor_id;sensor_type;location;lat;lon;timestamp;pressure;altitude;pressure_sealevel;temperature;humidity
76726;BME280;65651;53.154;17.916;2023-06-19T00:00:58;100929.71;;;13.58;81.97
76726;BME280;65651;53.154;17.916;2023-06-19T00:03:38;100935.40;;;13.55;82.08
76726;BME280;65651;53.154;17.916;2023-06-19T00:06:07;100935.19;;;13.52;82.18
76726;BME280;65651;53.154;17.916;2023-06-19T00:08:34;100932.62;;;13.49;82.14
76726;BME280;65651;53.154;17.916;2023-06-19T00:11:03;100932.23;;;13.48;82.33
76726;BME280;65651;53.154;17.916;2023-06-19T00:13:31;100932.36;;;13.47;82.30
76726;BME280;65651;53.154;17.916;2023-06-19T00:15:58;100935.30;;;13.46;82.37
76726;BME280;65651;53.154;17.916;2023-06-19T00:18:28;100934.96;;;13.46;82.31
76726;BME280;65651;53.154;17.916;2023-06-19T00:20:55;100937.16;;;13.43;82.43
76726;BME280;65651;53.154;17.916;2023-06-19T00:23:23;100933.91;;;13.43;82.49
76726;BME280;65651;53.154;17.916;2023-06-19T00:25:51;100936.68;;;13.43;82.53
76726;BME280;65651;53.154;17.916;2023-06-19T00:28:19;100939.22;;;13.43;82.68
76726;BME280;65651;53.154;17.916;2023-06-19T00:30:48;100942.71;;;13.48;82.97
76726;BME280;65651;53.154;17.916;2023-06-19T00:33:16;100943.09;;;13.49;82.84
76726;BME280;65651;53.154;17.916;2023-06-19T00:35:46;100939.08;;;13.50;82.84
76726;BME280;65651;53.154;17.916;2023-06-19T00:38:16;100936.34;;;13.52;82.92
76726;BME280;65651;53.154;17.916;2023-06-19T00:40:43;100934.10;;;13.52;82.84
76726;BME280;65651;53.154;17.916;2023-06-19T00:43:10;100929.92;;;13.49;82.80
76726;BME280;65651;53.154;17.916;2023-06-19T00:45:38;100930.58;;;13.48;83.07
76726;BME280;65651;53.154;17.916;2023-06-19T00:48:06;100927.87;;;13.46;83.01
76726;BME280;65651;53.154;17.916;2023-06-19T00:50:34;100928.41;;;13.42;83.09
76726;BME280;65651;53.154;17.916;2023-06-19T00:53:04;100926.50;;;13.37;83.06
76726;BME280;65651;53.154;17.916;2023-06-19T00:55:33;100924.55;;;13.33;82.97
76726;BME280;65651;53.154;17.916;2023-06-19T00:58:03;100921.52;;;13.31;82.98
76726;BME280;65651;53.154;17.916;2023-06-19T01:00:30;100919.77;;;13.28;82.99
76726;BME280;65651;53.154;17.916;2023-06-19T01:02:58;100918.25;;;13.26;83.02
76726;BME280;65651;53.154;17.916;2023-06-19T01:05:26;100921.48;;;13.23;83.15
76726;BME280;65651;53.154;17.916;2023-06-19T01:08:25;100918.08;;;13.20;83.17
76726;BME280;65651;53.154;17.916;2023-06-19T01:11:00;100916.96;;;13.17;83.18
76726;BME280;65651;53.154;17.916;2023-06-19T01:13:31;100923.39;;;13.14;83.32
76726;BME280;65651;53.154;17.916;2023-06-19T01:16:03;100923.92;;;13.10;83.22
76726;BME280;65651;53.154;17.916;2023-06-19T01:18:31;100923.36;;;13.07;83.29
76726;BME280;65651;53.154;17.916;2023-06-19T01:21:14;100924.92;;;13.04;83.54
76726;BME280;65651;53.154;17.916;2023-06-19T01:23:42;100928.20;;;13.00;83.43
76726;BME280;65651;53.154;17.916;2023-06-19T01:26:11;100924.42;;;12.97;83.42
76726;BME280;65651;53.154;17.916;2023-06-19T01:28:43;100925.94;;;12.94;83.45
76726;BME280;65651;53.154;17.916;2023-06-19T01:31:15;100924.12;;;12.90;83.43
76726;BME280;65651;53.154;17.916;2023-06-19T01:33:45;100927.21;;;12.86;83.70
76726;BME280;65651;53.154;17.916;2023-06-19T01:36:17;100927.45;;;12.82;83.56
76726;BME280;65651;53.154;17.916;2023-06-19T01:38:47;100929.75;;;12.79;83.53
76726;BME280;65651;53.154;17.916;2023-06-19T01:41:16;100929.63;;;12.77;83.57
76726;BME280;65651;53.154;17.916;2023-06-19T01:43:45;100931.64;;;12.75;83.54
76726;BME280;65651;53.154;17.916;2023-06-19T01:46:15;100931.30;;;12.73;83.56
76726;BME280;65651;53.154;17.916;2023-06-19T01:48:42;100927.61;;;12.70;83.80
76726;BME280;65651;53.154;17.916;2023-06-19T01:51:10;100925.52;;;12.68;83.73
76726;BME280;65651;53.154;17.916;2023-06-19T01:53:41;100928.05;;;12.66;83.70
76726;BME280;65651;53.154;17.916;2023-06-19T01:56:12;100924.44;;;12.64;83.66
76726;BME280;65651;53.154;17.916;2023-06-19T01:58:39;100924.14;;;12.61;83.83
76726;BME280;65651;53.154;17.916;2023-06-19T02:01:07;100922.94;;;12.59;83.94
76726;BME280;65651;53.154;17.916;2023-06-19T02:03:34;100921.98;;;12.56;83.86
76726;BME280;65651;53.154;17.916;2023-06-19T02:06:01;100920.66;;;12.53;83.91
76726;BME280;65651;53.154;17.916;2023-06-19T02:08:29;100918.87;;;12.51;83.85
76726;BME280;65651;53.154;17.916;2023-06-19T02:10:56;100922.27;;;12.49;83.80
76726;BME280;65651;53.154;17.916;2023-06-19T02:13:24;100921.55;;;12.48;84.01
76726;BME280;65651;53.154;17.916;2023-06-19T02:15:51;100918.14;;;12.46;83.93
76726;BME280;65651;53.154;17.916;2023-06-19T02:18:19;100923.02;;;12.44;84.15
76726;BME280;65651;53.154;17.916;2023-06-19T02:20:46;100921.98;;;12.42;83.93
76726;BME280;65651;53.154;17.916;2023-06-19T02:23:19;100918.27;;;12.41;84.03
76726;BME280;65651;53.154;17.916;2023-06-19T02:25:46;100924.23;;;12.41;84.00
76726;BME280;65651;53.154;17.916;2023-06-19T02:28:13;100919.09;;;12.40;84.07
76726;BME280;65651;53.154;17.916;2023-06-19T02:30:42;100914.00;;;12.38;84.10
76726;BME280;65651;53.154;17.916;2023-06-19T02:33:09;100912.95;;;12.38;84.12
76726;BME280;65651;53.154;17.916;2023-06-19T02:35:36;100913.83;;;12.38;84.08
76726;BME280;65651;53.154;17.916;2023-06-19T02:38:04;100916.70;;;12.38;84.02
76726;BME280;65651;53.154;17.916;2023-06-19T02:40:33;100914.50;;;12.38;84.11
76726;BME280;65651;53.154;17.916;2023-06-19T02:43:00;100920.98;;;12.38;84.15
76726;BME280;65651;53.154;17.916;2023-06-19T02:45:30;100918.77;;;12.39;84.07
76726;BME280;65651;53.154;17.916;2023-06-19T02:47:58;100912.55;;;12.41;84.11
76726;BME280;65651;53.154;17.916;2023-06-19T02:50:28;100914.91;;;12.40;84.00
76726;BME280;65651;53.154;17.916;2023-06-19T02:52:55;100917.04;;;12.41;83.91
76726;BME280;65651;53.154;17.916;2023-06-19T02:55:22;100921.70;;;12.43;83.97
76726;BME280;65651;53.154;17.916;2023-06-19T02:57:50;100925.64;;;12.44;83.82
76726;BME280;65651;53.154;17.916;2023-06-19T03:00:17;100930.17;;;12.46;83.86
76726;BME280;65651;53.154;17.916;2023-06-19T03:02:45;100933.81;;;12.49;83.89
76726;BME280;65651;53.154;17.916;2023-06-19T03:05:12;100938.03;;;12.54;83.90
76726;BME280;65651;53.154;17.916;2023-06-19T03:07:43;100937.72;;;12.59;83.78
76726;BME280;65651;53.154;17.916;2023-06-19T03:10:10;100942.50;;;12.61;83.74
76726;BME280;65651;53.154;17.916;2023-06-19T03:12:37;100944.23;;;12.64;83.68
76726;BME280;65651;53.154;17.916;2023-06-19T03:15:05;100943.64;;;12.70;83.72
76726;BME280;65651;53.154;17.916;2023-06-19T03:17:35;100940.20;;;12.76;83.57
76726;BME280;65651;53.154;17.916;2023-06-19T03:20:03;100939.95;;;12.83;83.35
76726;BME280;65651;53.154;17.916;2023-06-19T03:22:32;100940.20;;;12.92;83.44
76726;BME280;65651;53.154;17.916;2023-06-19T03:25:00;100943.41;;;12.99;83.30
76726;BME280;65651;53.154;17.916;2023-06-19T03:27:27;100941.55;;;13.05;83.20
76726;BME280;65651;53.154;17.916;2023-06-19T03:29:56;100939.02;;;13.12;83.11
76726;BME280;65651;53.154;17.916;2023-06-19T03:32:30;100941.70;;;13.22;83.09
76726;BME280;65651;53.154;17.916;2023-06-19T03:35:04;100939.35;;;13.42;82.81
76726;BME280;65651;53.154;17.916;2023-06-19T03:37:37;100940.02;;;14.03;82.38
76726;BME280;65651;53.154;17.916;2023-06-19T03:40:05;100942.98;;;14.74;81.77
76726;BME280;65651;53.154;17.916;2023-06-19T03:42:35;100944.54;;;15.29;81.20
76726;BME280;65651;53.154;17.916;2023-06-19T03:45:03;100942.52;;;15.79;80.88
76726;BME280;65651;53.154;17.916;2023-06-19T03:47:30;100938.64;;;16.27;80.44
76726;BME280;65651;53.154;17.916;2023-06-19T03:50:00;100939.80;;;16.68;79.95
76726;BME280;65651;53.154;17.916;2023-06-19T03:52:27;100942.86;;;17.37;79.11
76726;BME280;65651;53.154;17.916;2023-06-19T03:54:55;100934.67;;;18.23;78.14
76726;BME280;65651;53.154;17.916;2023-06-19T03:57:23;100933.40;;;19.23;77.13
76726;BME280;65651;53.154;17.916;2023-06-19T03:59:50;100931.04;;;20.19;75.90
76726;BME280;65651;53.154;17.916;2023-06-19T04:02:22;100939.13;;;21.16;74.86
76726;BME280;65651;53.154;17.916;2023-06-19T04:04:50;100934.91;;;22.06;73.75
76726;BME280;65651;53.154;17.916;2023-06-19T04:07:17;100926.20;;;22.94;72.57
76726;BME280;65651;53.154;17.916;2023-06-19T04:09:44;100925.63;;;23.69;71.30
76726;BME280;65651;53.154;17.916;2023-06-19T04:12:12;100919.56;;;24.40;70.18
76726;BME280;65651;53.154;17.916;2023-06-19T04:14:41;100920.63;;;25.15;68.92
76726;BME280;65651;53.154;17.916;2023-06-19T04:17:10;100922.69;;;25.89;67.61
76726;BME280;65651;53.154;17.916;2023-06-19T04:19:37;100914.61;;;26.48;65.93
76726;BME280;65651;53.154;17.916;2023-06-19T04:22:05;100917.37;;;27.01;64.50
76726;BME280;65651;53.154;17.916;2023-06-19T04:24:35;100915.83;;;27.36;63.03
76726;BME280;65651;53.154;17.916;2023-06-19T04:27:02;100916.91;;;27.55;61.42
76726;BME280;65651;53.154;17.916;2023-06-19T04:29:29;100910.02;;;28.00;60.16
76726;BME280;65651;53.154;17.916;2023-06-19T04:31:59;100911.46;;;28.55;58.79
76726;BME280;65651;53.154;17.916;2023-06-19T04:34:27;100918.75;;;29.08;56.90
76726;BME280;65651;53.154;17.916;2023-06-19T04:36:54;100921.64;;;29.58;55.64
76726;BME280;65651;53.154;17.916;2023-06-19T04:39:25;100920.80;;;29.99;53.86
76726;BME280;65651;53.154;17.916;2023-06-19T04:41:52;100918.48;;;30.36;52.49
76726;BME280;65651;53.154;17.916;2023-06-19T04:44:19;100914.24;;;30.80;50.99
76726;BME280;65651;53.154;17.916;2023-06-19T04:46:47;100916.71;;;31.33;49.44
76726;BME280;65651;53.154;17.916;2023-06-19T04:49:14;100915.35;;;31.81;47.90
76726;BME280;65651;53.154;17.916;2023-06-19T04:51:42;100916.50;;;32.29;46.30
76726;BME280;65651;53.154;17.916;2023-06-19T04:54:09;100917.21;;;32.65;44.70
76726;BME280;65651;53.154;17.916;2023-06-19T04:56:36;100918.58;;;32.99;43.00
76726;BME280;65651;53.154;17.916;2023-06-19T04:59:06;100922.93;;;33.35;41.77
76726;BME280;65651;53.154;17.916;2023-06-19T05:01:33;100925.17;;;33.64;40.30
76726;BME280;65651;53.154;17.916;2023-06-19T05:04:00;100930.60;;;34.00;38.91
76726;BME280;65651;53.154;17.916;2023-06-19T05:06:28;100934.83;;;34.30;37.24
76726;BME280;65651;53.154;17.916;2023-06-19T05:08:55;100934.56;;;34.07;36.24
76726;BME280;65651;53.154;17.916;2023-06-19T05:11:22;100933.73;;;34.03;35.47
76726;BME280;65651;53.154;17.916;2023-06-19T05:13:50;100942.19;;;34.20;34.51
76726;BME280;65651;53.154;17.916;2023-06-19T05:16:19;100936.91;;;34.29;33.59
76726;BME280;65651;53.154;17.916;2023-06-19T05:18:47;100935.36;;;34.61;33.08
76726;BME280;65651;53.154;17.916;2023-06-19T05:21:14;100932.73;;;35.08;32.50
76726;BME280;65651;53.154;17.916;2023-06-19T05:23:42;100934.12;;;35.51;31.84
76726;BME280;65651;53.154;17.916;2023-06-19T05:26:11;100938.97;;;35.99;31.21
76726;BME280;65651;53.154;17.916;2023-06-19T05:28:39;100938.24;;;36.49;30.47
76726;BME280;65651;53.154;17.916;2023-06-19T05:31:07;100940.81;;;36.98;29.89
76726;BME280;65651;53.154;17.916;2023-06-19T05:33:35;100941.86;;;37.43;28.95
76726;BME280;65651;53.154;17.916;2023-06-19T05:36:03;100940.29;;;37.75;28.21
76726;BME280;65651;53.154;17.916;2023-06-19T05:38:30;100942.87;;;38.18;27.67
76726;BME280;65651;53.154;17.916;2023-06-19T05:40:58;100945.94;;;38.57;27.05
76726;BME280;65651;53.154;17.916;2023-06-19T05:43:26;100943.33;;;38.85;26.49
76726;BME280;65651;53.154;17.916;2023-06-19T05:45:54;100944.46;;;39.11;25.99
76726;BME280;65651;53.154;17.916;2023-06-19T05:48:23;100944.52;;;39.34;25.60
76726;BME280;65651;53.154;17.916;2023-06-19T05:50:52;100940.80;;;39.72;25.23
76726;BME280;65651;53.154;17.916;2023-06-19T05:53:19;100941.00;;;40.00;24.71
76726;BME280;65651;53.154;17.916;2023-06-19T05:55:46;100944.67;;;40.27;24.51
76726;BME280;65651;53.154;17.916;2023-06-19T05:58:14;100944.25;;;40.51;24.07
76726;BME280;65651;53.154;17.916;2023-06-19T06:00:41;100945.54;;;40.75;23.77
76726;BME280;65651;53.154;17.916;2023-06-19T06:03:08;100943.70;;;40.89;23.26
76726;BME280;65651;53.154;17.916;2023-06-19T06:05:36;100941.13;;;41.11;23.02
76726;BME280;65651;53.154;17.916;2023-06-19T06:08:04;100943.73;;;41.34;22.93
76726;BME280;65651;53.154;17.916;2023-06-19T06:10:31;100942.80;;;41.62;22.83
76726;BME280;65651;53.154;17.916;2023-06-19T06:12:58;100941.34;;;41.65;22.29
76726;BME280;65651;53.154;17.916;2023-06-19T06:15:26;100946.77;;;41.81;21.88
76726;BME280;65651;53.154;17.916;2023-06-19T06:17:53;100947.08;;;42.10;21.41
76726;BME280;65651;53.154;17.916;2023-06-19T06:20:20;100944.02;;;42.33;21.08
76726;BME280;65651;53.154;17.916;2023-06-19T06:22:48;100947.59;;;42.46;20.79
76726;BME280;65651;53.154;17.916;2023-06-19T06:25:15;100950.39;;;42.64;20.59
76726;BME280;65651;53.154;17.916;2023-06-19T06:27:44;100948.85;;;43.01;20.07
76726;BME280;65651;53.154;17.916;2023-06-19T06:30:12;100951.98;;;43.42;19.55
76726;BME280;65651;53.154;17.916;2023-06-19T06:32:40;100955.37;;;43.76;19.20
76726;BME280;65651;53.154;17.916;2023-06-19T06:35:07;100955.95;;;44.00;18.79
76726;BME280;65651;53.154;17.916;2023-06-19T06:37:34;100952.83;;;44.07;18.58
76726;BME280;65651;53.154;17.916;2023-06-19T06:40:02;100956.73;;;44.17;18.54
76726;BME280;65651;53.154;17.916;2023-06-19T06:42:33;100957.40;;;44.29;18.47
76726;BME280;65651;53.154;17.916;2023-06-19T06:45:00;100958.04;;;44.29;17.95
76726;BME280;65651;53.154;17.916;2023-06-19T06:47:28;100967.17;;;43.29;17.54
76726;BME280;65651;53.154;17.916;2023-06-19T06:49:55;100960.45;;;42.34;17.61
76726;BME280;65651;53.154;17.916;2023-06-19T06:52:22;100963.54;;;41.96;17.71
76726;BME280;65651;53.154;17.916;2023-06-19T06:54:51;100965.55;;;42.02;17.75
76726;BME280;65651;53.154;17.916;2023-06-19T06:57:18;100966.61;;;42.53;17.71
76726;BME280;65651;53.154;17.916;2023-06-19T06:59:45;100967.38;;;43.01;17.28
76726;BME280;65651;53.154;17.916;2023-06-19T07:02:15;100964.80;;;42.82;17.16
76726;BME280;65651;53.154;17.916;2023-06-19T07:04:42;100968.48;;;42.95;17.21
76726;BME280;65651;53.154;17.916;2023-06-19T07:07:12;100969.61;;;43.39;17.16
76726;BME280;65651;53.154;17.916;2023-06-19T07:09:40;100969.02;;;43.91;17.08
76726;BME280;65651;53.154;17.916;2023-06-19T07:12:08;100969.79;;;44.47;16.58
76726;BME280;65651;53.154;17.916;2023-06-19T07:14:35;100972.95;;;44.11;16.27
76726;BME280;65651;53.154;17.916;2023-06-19T07:17:03;100975.60;;;43.72;16.32
76726;BME280;65651;53.154;17.916;2023-06-19T07:19:30;100970.73;;;44.21;15.97
76726;BME280;65651;53.154;17.916;2023-06-19T07:21:58;100972.47;;;44.59;15.93
76726;BME280;65651;53.154;17.916;2023-06-19T07:24:27;100970.16;;;44.46;15.84
76726;BME280;65651;53.154;17.916;2023-06-19T07:26:55;100976.65;;;44.43;15.67
76726;BME280;65651;53.154;17.916;2023-06-19T07:29:23;100981.86;;;44.28;15.45
76726;BME280;65651;53.154;17.916;2023-06-19T07:31:59;100988.16;;;43.26;16.16
76726;BME280;65651;53.154;17.916;2023-06-19T07:34:31;100988.19;;;43.35;16.56
76726;BME280;65651;53.154;17.916;2023-06-19T07:36:58;100987.05;;;43.40;16.45
76726;BME280;65651;53.154;17.916;2023-06-19T07:39:26;100987.33;;;43.12;16.30
76726;BME280;65651;53.154;17.916;2023-06-19T07:41:53;100988.50;;;43.37;16.39
76726;BME280;65651;53.154;17.916;2023-06-19T07:44:20;100985.27;;;43.99;16.42
76726;BME280;65651;53.154;17.916;2023-06-19T07:46:48;100984.31;;;44.14;16.23
76726;BME280;65651;53.154;17.916;2023-06-19T07:49:15;100980.45;;;44.43;16.22
76726;BME280;65651;53.154;17.916;2023-06-19T07:51:43;100979.09;;;44.68;15.74
76726;BME280;65651;53.154;17.916;2023-06-19T07:54:10;100975.08;;;44.48;15.56
76726;BME280;65651;53.154;17.916;2023-06-19T07:56:37;100972.66;;;44.42;15.51
76726;BME280;65651;53.154;17.916;2023-06-19T07:59:04;100979.11;;;44.28;15.55
76726;BME280;65651;53.154;17.916;2023-06-19T08:01:31;100981.02;;;43.71;16.05
76726;BME280;65651;53.154;17.916;2023-06-19T08:04:02;100976.52;;;44.22;16.05
76726;BME280;65651;53.154;17.916;2023-06-19T08:06:29;100972.84;;;44.82;15.79
76726;BME280;65651;53.154;17.916;2023-06-19T08:08:56;100973.90;;;45.02;15.64
76726;BME280;65651;53.154;17.916;2023-06-19T08:11:23;100969.80;;;44.84;15.48
76726;BME280;65651;53.154;17.916;2023-06-19T08:13:51;100975.18;;;43.98;15.08
76726;BME280;65651;53.154;17.916;2023-06-19T08:16:18;100978.13;;;42.95;15.55
76726;BME280;65651;53.154;17.916;2023-06-19T08:18:46;100978.27;;;42.32;16.06
76726;BME280;65651;53.154;17.916;2023-06-19T08:21:13;100973.14;;;42.04;16.20
76726;BME280;65651;53.154;17.916;2023-06-19T08:23:40;100968.20;;;42.31;16.22
76726;BME280;65651;53.154;17.916;2023-06-19T08:26:10;100973.59;;;42.68;16.00
76726;BME280;65651;53.154;17.916;2023-06-19T08:28:38;100975.79;;;43.16;15.82
76726;BME280;65651;53.154;17.916;2023-06-19T08:31:05;100972.15;;;43.56;15.90
76726;BME280;65651;53.154;17.916;2023-06-19T08:33:34;100973.23;;;44.00;15.81
76726;BME280;65651;53.154;17.916;2023-06-19T08:36:02;100967.20;;;43.99;15.40
76726;BME280;65651;53.154;17.916;2023-06-19T08:38:29;100972.52;;;43.86;15.28
76726;BME280;65651;53.154;17.916;2023-06-19T08:40:57;100972.71;;;43.35;15.31
76726;BME280;65651;53.154;17.916;2023-06-19T08:43:27;100974.55;;;43.26;15.29
76726;BME280;65651;53.154;17.916;2023-06-19T08:46:10;100977.38;;;43.24;15.38
76726;BME280;65651;53.154;17.916;2023-06-19T08:48:38;100977.52;;;42.77;15.36
76726;BME280;65651;53.154;17.916;2023-06-19T08:51:06;100973.10;;;43.03;15.66
76726;BME280;65651;53.154;17.916;2023-06-19T08:53:36;100972.34;;;43.77;15.51
76726;BME280;65651;53.154;17.916;2023-06-19T08:56:09;100971.77;;;43.97;15.29
76726;BME280;65651;53.154;17.916;2023-06-19T08:58:36;100963.67;;;44.43;15.18
76726;BME280;65651;53.154;17.916;2023-06-19T09:01:04;100958.98;;;44.83;14.65
76726;BME280;65651;53.154;17.916;2023-06-19T09:03:31;100954.63;;;44.13;14.77
76726;BME280;65651;53.154;17.916;2023-06-19T09:06:08;100956.72;;;43.47;14.61
76726;BME280;65651;53.154;17.916;2023-06-19T09:08:36;100956.96;;;43.31;15.12
76726;BME280;65651;53.154;17.916;2023-06-19T09:11:05;100958.91;;;43.92;14.49
76726;BME280;65651;53.154;17.916;2023-06-19T09:13:33;100951.70;;;44.56;14.33
76726;BME280;65651;53.154;17.916;2023-06-19T09:16:08;100953.91;;;44.30;14.06
76726;BME280;65651;53.154;17.916;2023-06-19T09:18:44;100951.85;;;43.36;14.46
76726;BME280;65651;53.154;17.916;2023-06-19T09:23:46;100944.02;;;41.95;15.12
76726;BME280;65651;53.154;17.916;2023-06-19T09:26:14;100938.42;;;42.00;15.28
76726;BME280;65651;53.154;17.916;2023-06-19T09:28:43;100940.20;;;42.95;14.91
76726;BME280;65651;53.154;17.916;2023-06-19T09:31:11;100938.35;;;43.18;14.63
76726;BME280;65651;53.154;17.916;2023-06-19T09:33:40;100942.98;;;42.93;14.75
76726;BME280;65651;53.154;17.916;2023-06-19T09:36:07;100944.48;;;42.59;14.68
76726;BME280;65651;53.154;17.916;2023-06-19T09:38:36;100935.70;;;42.04;14.87
76726;BME280;65651;53.154;17.916;2023-06-19T09:41:13;100940.02;;;39.63;15.89
76726;BME280;65651;53.154;17.916;2023-06-19T09:43:43;100937.71;;;37.47;17.53
76726;BME280;65651;53.154;17.916;2023-06-19T09:46:12;100938.83;;;36.53;18.62
76726;BME280;65651;53.154;17.916;2023-06-19T09:48:44;100937.96;;;37.78;18.58
76726;BME280;65651;53.154;17.916;2023-06-19T09:51:23;100938.55;;;38.67;18.58
76726;BME280;65651;53.154;17.916;2023-06-19T09:53:57;100938.45;;;39.15;17.96
76726;BME280;65651;53.154;17.916;2023-06-19T09:56:25;100934.62;;;38.98;18.31
76726;BME280;65651;53.154;17.916;2023-06-19T09:58:56;100939.40;;;38.65;18.39
76726;BME280;65651;53.154;17.916;2023-06-19T10:01:31;100938.59;;;38.31;18.52
76726;BME280;65651;53.154;17.916;2023-06-19T10:04:07;100937.89;;;38.33;18.70
76726;BME280;65651;53.154;17.916;2023-06-19T10:06:47;100931.39;;;38.88;18.60
76726;BME280;65651;53.154;17.916;2023-06-19T10:09:16;100929.11;;;38.98;18.37
76726;BME280;65651;53.154;17.916;2023-06-19T10:11:51;100927.02;;;37.46;19.07
76726;BME280;65651;53.154;17.916;2023-06-19T10:14:20;100922.27;;;35.51;20.02
76726;BME280;65651;53.154;17.916;2023-06-19T10:16:47;100924.84;;;33.99;21.75
76726;BME280;65651;53.154;17.916;2023-06-19T10:19:16;100922.09;;;33.07;22.58
76726;BME280;65651;53.154;17.916;2023-06-19T10:21:48;100921.74;;;32.51;23.53
76726;BME280;65651;53.154;17.916;2023-06-19T10:24:18;100924.34;;;32.08;24.28
76726;BME280;65651;53.154;17.916;2023-06-19T10:27:00;100925.20;;;31.61;25.15
76726;BME280;65651;53.154;17.916;2023-06-19T10:29:52;100923.44;;;31.08;25.68
76726;BME280;65651;53.154;17.916;2023-06-19T10:32:22;100925.48;;;31.00;26.20
76726;BME280;65651;53.154;17.916;2023-06-19T10:34:49;100930.88;;;30.96;26.39
76726;BME280;65651;53.154;17.916;2023-06-19T10:37:17;100925.50;;;30.72;26.71
76726;BME280;65651;53.154;17.916;2023-06-19T10:39:45;100925.27;;;30.40;26.95
76726;BME280;65651;53.154;17.916;2023-06-19T10:42:12;100934.62;;;29.92;27.69
76726;BME280;65651;53.154;17.916;2023-06-19T10:44:39;100934.21;;;29.55;27.97
76726;BME280;65651;53.154;17.916;2023-06-19T10:47:09;100933.88;;;29.44;28.33
76726;BME280;65651;53.154;17.916;2023-06-19T10:49:36;100928.85;;;29.41;28.60
76726;BME280;65651;53.154;17.916;2023-06-19T10:52:03;100931.52;;;29.41;28.81
76726;BME280;65651;53.154;17.916;2023-06-19T10:54:31;100931.08;;;29.48;28.75
76726;BME280;65651;53.154;17.916;2023-06-19T10:57:04;100931.48;;;29.74;28.77
76726;BME280;65651;53.154;17.916;2023-06-19T10:59:33;100932.26;;;29.71;28.31
76726;BME280;65651;53.154;17.916;2023-06-19T11:02:00;100927.20;;;29.58;28.61
76726;BME280;65651;53.154;17.916;2023-06-19T11:04:28;100923.98;;;29.71;28.81
76726;BME280;65651;53.154;17.916;2023-06-19T11:06:56;100929.30;;;29.71;28.93
76726;BME280;65651;53.154;17.916;2023-06-19T11:09:30;100926.36;;;29.48;29.04
76726;BME280;65651;53.154;17.916;2023-06-19T11:11:58;100920.87;;;29.31;29.57
76726;BME280;65651;53.154;17.916;2023-06-19T11:14:29;100931.61;;;29.28;29.82
76726;BME280;65651;53.154;17.916;2023-06-19T11:16:57;100931.02;;;29.35;29.50
76726;BME280;65651;53.154;17.916;2023-06-19T11:19:30;100933.09;;;29.31;29.50
76726;BME280;65651;53.154;17.916;2023-06-19T11:21:58;100925.27;;;29.05;29.84
76726;BME280;65651;53.154;17.916;2023-06-19T11:24:28;100926.71;;;28.96;30.35
76726;BME280;65651;53.154;17.916;2023-06-19T11:26:56;100922.41;;;28.97;30.33
76726;BME280;65651;53.154;17.916;2023-06-19T11:29:28;100924.35;;;29.23;30.21
76726;BME280;65651;53.154;17.916;2023-06-19T11:32:13;100922.80;;;29.23;29.82
76726;BME280;65651;53.154;17.916;2023-06-19T11:34:41;100924.75;;;29.12;29.88
76726;BME280;65651;53.154;17.916;2023-06-19T11:37:15;100922.29;;;28.97;30.03
76726;BME280;65651;53.154;17.916;2023-06-19T11:39:46;100916.64;;;28.80;30.43
76726;BME280;65651;53.154;17.916;2023-06-19T11:42:17;100918.05;;;28.58;30.59
76726;BME280;65651;53.154;17.916;2023-06-19T11:45:02;100916.48;;;28.25;30.96
76726;BME280;65651;53.154;17.916;2023-06-19T11:47:34;100915.19;;;27.98;31.06
76726;BME280;65651;53.154;17.916;2023-06-19T11:50:05;100908.15;;;27.89;30.83
76726;BME280;65651;53.154;17.916;2023-06-19T11:52:33;100908.38;;;27.94;31.19
76726;BME280;65651;53.154;17.916;2023-06-19T11:55:00;100908.27;;;28.08;31.29
76726;BME280;65651;53.154;17.916;2023-06-19T11:57:27;100906.35;;;28.22;31.22
76726;BME280;65651;53.154;17.916;2023-06-19T11:59:55;100906.83;;;28.35;31.45
76726;BME280;65651;53.154;17.916;2023-06-19T12:02:23;100900.27;;;28.46;31.21
76726;BME280;65651;53.154;17.916;2023-06-19T12:04:51;100898.58;;;28.48;31.26
76726;BME280;65651;53.154;17.916;2023-06-19T12:07:18;100899.14;;;28.49;31.09
76726;BME280;65651;53.154;17.916;2023-06-19T12:09:45;100903.02;;;28.58;31.40
76726;BME280;65651;53.154;17.916;2023-06-19T12:12:15;100898.11;;;28.74;31.22
76726;BME280;65651;53.154;17.916;2023-06-19T12:14:42;100896.02;;;28.98;31.19
76726;BME280;65651;53.154;17.916;2023-06-19T12:17:10;100898.83;;;29.18;31.35
76726;BME280;65651;53.154;17.916;2023-06-19T12:19:37;100901.59;;;29.28;31.10
76726;BME280;65651;53.154;17.916;2023-06-19T12:22:05;100898.20;;;29.34;31.01
76726;BME280;65651;53.154;17.916;2023-06-19T12:24:32;100902.19;;;29.45;30.77
76726;BME280;65651;53.154;17.916;2023-06-19T12:27:00;100897.88;;;29.28;30.74
76726;BME280;65651;53.154;17.916;2023-06-19T12:29:27;100899.25;;;29.15;30.84
76726;BME280;65651;53.154;17.916;2023-06-19T12:32:02;100892.31;;;29.15;30.89
76726;BME280;65651;53.154;17.916;2023-06-19T12:34:32;100888.73;;;29.28;30.88
76726;BME280;65651;53.154;17.916;2023-06-19T12:37:00;100892.30;;;29.29;30.83
76726;BME280;65651;53.154;17.916;2023-06-19T12:39:27;100889.77;;;29.21;30.94
76726;BME280;65651;53.154;17.916;2023-06-19T12:41:54;100888.26;;;29.08;30.86
76726;BME280;65651;53.154;17.916;2023-06-19T12:44:22;100884.28;;;28.90;30.85
76726;BME280;65651;53.154;17.916;2023-06-19T12:46:50;100884.32;;;28.80;31.12
76726;BME280;65651;53.154;17.916;2023-06-19T12:49:17;100883.67;;;28.76;31.06
76726;BME280;65651;53.154;17.916;2023-06-19T12:51:45;100887.44;;;28.76;31.11